Portland, Oregon
Traffic Map
Current Weather Conditions
Portland, Oregon
Overcast
Overcast
11°
Feels Like: 11°
Wind Chill: 11° Ceiling: 25000
Heat Index: 11° Visibility: 10mi
Dew Point: 11° Wind: 5mph
Humidity: 100% Direction: 280° (W)
Pressure: 29.68in Gusts: 0mph
Raw Report DataKPDX 250653Z 28004KT 10SM OVC250 11/11 A2968 RMK AO2 SLP050 T01060106
Traffic Incident Summary
Active as of:
Severity:
Category:
InformationThere was an issue retrieving the traffic information for this location. Please try a different location or try again shortly.
Advertisements
Track Severe Weather on mobile